sensor_id;sensor_type;location;lat;lon;timestamp;P1;durP1;ratioP1;P2;durP2;ratioP2
53688;SDS011;39583;54.682;30.662;2024-03-25T05:38:45;12.05;;;6.18;;
53688;SDS011;39583;54.682;30.662;2024-03-25T05:41:12;13.40;;;5.47;;
53688;SDS011;39583;54.682;30.662;2024-03-25T05:43:38;13.43;;;4.20;;
53688;SDS011;39583;54.682;30.662;2024-03-25T05:46:04;14.20;;;4.47;;
53688;SDS011;39583;54.682;30.662;2024-03-25T05:48:31;7.60;;;3.90;;
53688;SDS011;39583;54.682;30.662;2024-03-25T05:53:27;11.85;;;3.70;;
53688;SDS011;39583;54.682;30.662;2024-03-25T05:55:54;7.13;;;3.78;;
53688;SDS011;39583;54.682;30.662;2024-03-25T05:58:21;8.02;;;3.50;;
53688;SDS011;39583;54.682;30.662;2024-03-25T06:00:48;5.18;;;3.17;;
53688;SDS011;39583;54.682;30.662;2024-03-25T06:03:15;6.10;;;3.17;;
53688;SDS011;39583;54.682;30.662;2024-03-25T06:05:42;8.88;;;3.67;;
53688;SDS011;39583;54.682;30.662;2024-03-25T06:08:09;11.15;;;3.55;;
53688;SDS011;39583;54.682;30.662;2024-03-25T06:10:44;7.53;;;3.92;;
53688;SDS011;39583;54.682;30.662;2024-03-25T06:13:10;9.10;;;3.78;;
53688;SDS011;39583;54.682;30.662;2024-03-25T06:15:36;6.65;;;3.35;;
53688;SDS011;39583;54.682;30.662;2024-03-25T06:18:03;8.60;;;3.92;;
53688;SDS011;39583;54.682;30.662;2024-03-25T06:20:29;6.57;;;3.35;;
53688;SDS011;39583;54.682;30.662;2024-03-25T06:22:56;10.57;;;3.80;;
53688;SDS011;39583;54.682;30.662;2024-03-25T06:25:22;7.10;;;3.92;;
53688;SDS011;39583;54.682;30.662;2024-03-25T06:27:48;8.15;;;4.00;;
53688;SDS011;39583;54.682;30.662;2024-03-25T06:30:15;6.57;;;3.20;;
53688;SDS011;39583;54.682;30.662;2024-03-25T06:32:59;10.23;;;4.07;;
53688;SDS011;39583;54.682;30.662;2024-03-25T06:35:44;6.80;;;3.53;;
53688;SDS011;39583;54.682;30.662;2024-03-25T06:38:11;7.05;;;3.17;;
53688;SDS011;39583;54.682;30.662;2024-03-25T06:40:37;4.82;;;2.72;;
53688;SDS011;39583;54.682;30.662;2024-03-25T06:43:04;8.27;;;3.60;;
53688;SDS011;39583;54.682;30.662;2024-03-25T06:45:31;9.90;;;3.13;;
53688;SDS011;39583;54.682;30.662;2024-03-25T06:47:57;8.35;;;3.75;;
53688;SDS011;39583;54.682;30.662;2024-03-25T06:50:24;12.75;;;3.40;;
53688;SDS011;39583;54.682;30.662;2024-03-25T06:52:52;9.10;;;3.50;;
53688;SDS011;39583;54.682;30.662;2024-03-25T06:55:18;7.93;;;3.47;;
53688;SDS011;39583;54.682;30.662;2024-03-25T06:57:48;11.65;;;3.85;;
53688;SDS011;39583;54.682;30.662;2024-03-25T07:00:15;9.32;;;3.60;;
53688;SDS011;39583;54.682;30.662;2024-03-25T07:02:41;8.40;;;3.78;;
53688;SDS011;39583;54.682;30.662;2024-03-25T07:05:08;6.60;;;3.60;;
53688;SDS011;39583;54.682;30.662;2024-03-25T07:07:34;6.25;;;3.22;;
53688;SDS011;39583;54.682;30.662;2024-03-25T07:10:01;10.32;;;3.50;;
53688;SDS011;39583;54.682;30.662;2024-03-25T07:12:27;10.00;;;3.90;;
53688;SDS011;39583;54.682;30.662;2024-03-25T07:14:54;8.40;;;3.55;;
53688;SDS011;39583;54.682;30.662;2024-03-25T07:17:20;6.95;;;3.42;;
53688;SDS011;39583;54.682;30.662;2024-03-25T07:19:51;7.22;;;3.17;;
53688;SDS011;39583;54.682;30.662;2024-03-25T07:22:18;13.25;;;3.88;;
53688;SDS011;39583;54.682;30.662;2024-03-25T07:24:45;10.20;;;3.78;;
53688;SDS011;39583;54.682;30.662;2024-03-25T07:27:11;8.25;;;3.33;;
53688;SDS011;39583;54.682;30.662;2024-03-25T07:29:38;8.60;;;3.30;;
53688;SDS011;39583;54.682;30.662;2024-03-25T07:32:06;5.90;;;3.05;;
53688;SDS011;39583;54.682;30.662;2024-03-25T07:34:32;10.27;;;3.65;;
53688;SDS011;39583;54.682;30.662;2024-03-25T07:36:58;8.30;;;3.55;;
53688;SDS011;39583;54.682;30.662;2024-03-25T07:39:24;6.63;;;3.53;;
53688;SDS011;39583;54.682;30.662;2024-03-25T07:41:53;7.05;;;3.85;;
53688;SDS011;39583;54.682;30.662;2024-03-25T07:44:19;9.23;;;3.13;;
53688;SDS011;39583;54.682;30.662;2024-03-25T07:46:46;6.95;;;2.88;;
53688;SDS011;39583;54.682;30.662;2024-03-25T07:49:12;11.15;;;3.97;;
53688;SDS011;39583;54.682;30.662;2024-03-25T07:51:39;11.10;;;2.85;;
53688;SDS011;39583;54.682;30.662;2024-03-25T07:54:06;6.22;;;3.20;;
53688;SDS011;39583;54.682;30.662;2024-03-25T07:56:32;5.85;;;3.08;;
53688;SDS011;39583;54.682;30.662;2024-03-25T07:59:03;6.18;;;3.03;;
53688;SDS011;39583;54.682;30.662;2024-03-25T08:01:29;10.95;;;3.72;;
53688;SDS011;39583;54.682;30.662;2024-03-25T08:03:56;6.63;;;3.70;;
53688;SDS011;39583;54.682;30.662;2024-03-25T08:06:22;8.00;;;3.35;;
53688;SDS011;39583;54.682;30.662;2024-03-25T08:08:49;8.13;;;3.97;;
53688;SDS011;39583;54.682;30.662;2024-03-25T08:11:15;7.05;;;3.58;;
53688;SDS011;39583;54.682;30.662;2024-03-25T08:13:42;7.60;;;4.00;;
53688;SDS011;39583;54.682;30.662;2024-03-25T08:16:08;6.65;;;3.75;;
53688;SDS011;39583;54.682;30.662;2024-03-25T08:18:34;10.25;;;3.28;;
53688;SDS011;39583;54.682;30.662;2024-03-25T08:21:01;10.35;;;3.97;;
53688;SDS011;39583;54.682;30.662;2024-03-25T08:23:27;8.48;;;3.47;;
53688;SDS011;39583;54.682;30.662;2024-03-25T08:25:54;7.82;;;4.05;;
53688;SDS011;39583;54.682;30.662;2024-03-25T08:28:20;6.78;;;3.83;;
53688;SDS011;39583;54.682;30.662;2024-03-25T08:30:46;10.18;;;3.60;;
53688;SDS011;39583;54.682;30.662;2024-03-25T08:33:13;7.63;;;3.60;;
53688;SDS011;39583;54.682;30.662;2024-03-25T08:35:39;8.48;;;3.65;;
53688;SDS011;39583;54.682;30.662;2024-03-25T08:38:05;6.80;;;3.22;;
53688;SDS011;39583;54.682;30.662;2024-03-25T08:40:32;4.88;;;3.20;;
53688;SDS011;39583;54.682;30.662;2024-03-25T08:42:58;5.18;;;3.00;;
53688;SDS011;39583;54.682;30.662;2024-03-25T08:45:25;7.05;;;3.38;;
53688;SDS011;39583;54.682;30.662;2024-03-25T08:47:51;8.13;;;3.97;;
53688;SDS011;39583;54.682;30.662;2024-03-25T08:50:18;7.20;;;2.90;;
53688;SDS011;39583;54.682;30.662;2024-03-25T08:52:44;7.15;;;3.08;;
53688;SDS011;39583;54.682;30.662;2024-03-25T08:55:10;7.38;;;3.28;;
53688;SDS011;39583;54.682;30.662;2024-03-25T08:57:38;6.70;;;2.80;;
53688;SDS011;39583;54.682;30.662;2024-03-25T09:00:04;7.45;;;3.70;;
53688;SDS011;39583;54.682;30.662;2024-03-25T09:02:36;5.43;;;3.25;;
53688;SDS011;39583;54.682;30.662;2024-03-25T09:05:02;5.28;;;3.55;;
53688;SDS011;39583;54.682;30.662;2024-03-25T09:07:33;9.30;;;2.88;;
53688;SDS011;39583;54.682;30.662;2024-03-25T09:09:59;8.57;;;2.95;;
53688;SDS011;39583;54.682;30.662;2024-03-25T09:12:44;6.25;;;3.17;;
53688;SDS011;39583;54.682;30.662;2024-03-25T09:15:10;5.95;;;3.33;;
53688;SDS011;39583;54.682;30.662;2024-03-25T09:17:37;9.02;;;3.60;;
53688;SDS011;39583;54.682;30.662;2024-03-25T09:20:03;9.40;;;4.25;;
53688;SDS011;39583;54.682;30.662;2024-03-25T09:22:31;6.38;;;3.38;;
53688;SDS011;39583;54.682;30.662;2024-03-25T09:24:57;8.60;;;4.05;;
53688;SDS011;39583;54.682;30.662;2024-03-25T09:27:23;6.60;;;3.28;;
53688;SDS011;39583;54.682;30.662;2024-03-25T09:29:50;7.97;;;3.50;;
53688;SDS011;39583;54.682;30.662;2024-03-25T09:32:16;6.90;;;3.42;;
53688;SDS011;39583;54.682;30.662;2024-03-25T09:34:43;8.55;;;3.42;;
53688;SDS011;39583;54.682;30.662;2024-03-25T09:37:13;6.38;;;3.63;;
53688;SDS011;39583;54.682;30.662;2024-03-25T09:39:39;7.43;;;2.85;;
53688;SDS011;39583;54.682;30.662;2024-03-25T09:42:06;5.22;;;2.75;;
53688;SDS011;39583;54.682;30.662;2024-03-25T09:44:34;10.18;;;3.10;;
53688;SDS011;39583;54.682;30.662;2024-03-25T09:47:01;5.28;;;2.72;;
53688;SDS011;39583;54.682;30.662;2024-03-25T09:49:28;5.88;;;2.55;;
53688;SDS011;39583;54.682;30.662;2024-03-25T09:51:54;6.65;;;3.60;;
53688;SDS011;39583;54.682;30.662;2024-03-25T09:54:21;5.90;;;2.53;;
53688;SDS011;39583;54.682;30.662;2024-03-25T09:56:47;9.80;;;2.47;;
53688;SDS011;39583;54.682;30.662;2024-03-25T09:59:16;7.35;;;2.60;;
53688;SDS011;39583;54.682;30.662;2024-03-25T10:01:43;7.50;;;2.78;;
53688;SDS011;39583;54.682;30.662;2024-03-25T10:04:09;9.15;;;3.22;;
53688;SDS011;39583;54.682;30.662;2024-03-25T10:06:35;5.60;;;2.20;;
53688;SDS011;39583;54.682;30.662;2024-03-25T10:09:05;6.57;;;2.58;;
53688;SDS011;39583;54.682;30.662;2024-03-25T10:11:32;9.82;;;2.92;;
53688;SDS011;39583;54.682;30.662;2024-03-25T10:14:01;7.88;;;2.80;;
53688;SDS011;39583;54.682;30.662;2024-03-25T10:16:27;7.38;;;2.83;;
53688;SDS011;39583;54.682;30.662;2024-03-25T10:18:54;4.38;;;2.72;;
53688;SDS011;39583;54.682;30.662;2024-03-25T10:21:20;7.30;;;3.60;;
53688;SDS011;39583;54.682;30.662;2024-03-25T10:23:50;8.32;;;3.15;;
53688;SDS011;39583;54.682;30.662;2024-03-25T10:26:26;7.38;;;3.10;;
53688;SDS011;39583;54.682;30.662;2024-03-25T10:29:00;5.43;;;3.03;;
53688;SDS011;39583;54.682;30.662;2024-03-25T10:31:26;5.75;;;2.60;;
53688;SDS011;39583;54.682;30.662;2024-03-25T10:33:53;6.00;;;3.22;;
53688;SDS011;39583;54.682;30.662;2024-03-25T10:36:20;7.03;;;3.20;;
53688;SDS011;39583;54.682;30.662;2024-03-25T10:38:48;10.57;;;2.90;;
53688;SDS011;39583;54.682;30.662;2024-03-25T10:41:17;5.95;;;3.00;;
53688;SDS011;39583;54.682;30.662;2024-03-25T10:43:45;4.35;;;2.58;;
53688;SDS011;39583;54.682;30.662;2024-03-25T10:46:15;7.68;;;2.72;;
53688;SDS011;39583;54.682;30.662;2024-03-25T10:48:54;5.95;;;2.72;;
53688;SDS011;39583;54.682;30.662;2024-03-25T10:51:27;5.80;;;2.50;;
53688;SDS011;39583;54.682;30.662;2024-03-25T10:53:56;5.38;;;2.47;;
53688;SDS011;39583;54.682;30.662;2024-03-25T10:56:24;5.88;;;2.65;;
53688;SDS011;39583;54.682;30.662;2024-03-25T10:58:51;4.25;;;2.58;;
53688;SDS011;39583;54.682;30.662;2024-03-25T11:01:19;4.13;;;2.40;;
53688;SDS011;39583;54.682;30.662;2024-03-25T11:03:48;5.05;;;2.53;;
53688;SDS011;39583;54.682;30.662;2024-03-25T11:06:15;6.05;;;2.70;;
53688;SDS011;39583;54.682;30.662;2024-03-25T11:08:44;6.05;;;2.83;;
53688;SDS011;39583;54.682;30.662;2024-03-25T11:11:13;5.75;;;2.25;;
53688;SDS011;39583;54.682;30.662;2024-03-25T11:13:42;6.20;;;2.50;;
53688;SDS011;39583;54.682;30.662;2024-03-25T11:16:08;8.57;;;2.90;;
53688;SDS011;39583;54.682;30.662;2024-03-25T11:18:36;6.25;;;3.10;;
53688;SDS011;39583;54.682;30.662;2024-03-25T11:21:06;6.68;;;2.63;;
53688;SDS011;39583;54.682;30.662;2024-03-25T11:23:40;5.57;;;3.05;;
53688;SDS011;39583;54.682;30.662;2024-03-25T11:26:24;5.65;;;2.75;;
53688;SDS011;39583;54.682;30.662;2024-03-25T11:28:52;4.40;;;2.70;;
53688;SDS011;39583;54.682;30.662;2024-03-25T11:31:21;5.85;;;2.53;;
53688;SDS011;39583;54.682;30.662;2024-03-25T11:33:50;4.43;;;2.22;;
53688;SDS011;39583;54.682;30.662;2024-03-25T11:36:16;10.00;;;2.45;;
53688;SDS011;39583;54.682;30.662;2024-03-25T11:38:57;5.75;;;2.53;;
53688;SDS011;39583;54.682;30.662;2024-03-25T11:41:43;5.30;;;2.30;;
53688;SDS011;39583;54.682;30.662;2024-03-25T11:44:11;5.45;;;2.65;;
53688;SDS011;39583;54.682;30.662;2024-03-25T11:46:41;7.53;;;3.10;;
53688;SDS011;39583;54.682;30.662;2024-03-25T11:52:12;7.10;;;2.78;;
53688;SDS011;39583;54.682;30.662;2024-03-25T11:54:39;5.45;;;2.50;;
53688;SDS011;39583;54.682;30.662;2024-03-25T11:57:06;5.80;;;2.55;;
53688;SDS011;39583;54.682;30.662;2024-03-25T11:59:33;4.28;;;2.40;;
53688;SDS011;39583;54.682;30.662;2024-03-25T12:01:59;4.75;;;2.22;;
53688;SDS011;39583;54.682;30.662;2024-03-25T12:04:25;8.52;;;2.67;;
53688;SDS011;39583;54.682;30.662;2024-03-25T12:06:56;6.40;;;2.22;;
53688;SDS011;39583;54.682;30.662;2024-03-25T12:09:22;7.50;;;2.47;;
53688;SDS011;39583;54.682;30.662;2024-03-25T12:12:07;5.32;;;2.20;;
53688;SDS011;39583;54.682;30.662;2024-03-25T12:14:33;4.57;;;2.30;;
53688;SDS011;39583;54.682;30.662;2024-03-25T12:17:00;5.78;;;2.65;;
53688;SDS011;39583;54.682;30.662;2024-03-25T12:19:28;5.82;;;2.55;;
53688;SDS011;39583;54.682;30.662;2024-03-25T12:21:59;5.72;;;2.50;;
53688;SDS011;39583;54.682;30.662;2024-03-25T12:24:26;4.13;;;2.75;;
53688;SDS011;39583;54.682;30.662;2024-03-25T12:26:53;5.90;;;2.72;;
53688;SDS011;39583;54.682;30.662;2024-03-25T12:29:19;4.15;;;2.15;;
53688;SDS011;39583;54.682;30.662;2024-03-25T12:31:58;4.30;;;2.40;;
53688;SDS011;39583;54.682;30.662;2024-03-25T12:34:27;4.25;;;2.55;;
53688;SDS011;39583;54.682;30.662;2024-03-25T12:37:03;4.75;;;2.58;;
53688;SDS011;39583;54.682;30.662;2024-03-25T12:39:32;5.90;;;3.20;;
53688;SDS011;39583;54.682;30.662;2024-03-25T12:42:03;4.28;;;2.70;;
53688;SDS011;39583;54.682;30.662;2024-03-25T12:44:31;3.95;;;2.50;;
53688;SDS011;39583;54.682;30.662;2024-03-25T12:46:58;6.22;;;2.72;;
53688;SDS011;39583;54.682;30.662;2024-03-25T12:49:24;9.50;;;2.85;;
53688;SDS011;39583;54.682;30.662;2024-03-25T12:51:51;5.90;;;3.00;;
53688;SDS011;39583;54.682;30.662;2024-03-25T12:54:18;5.40;;;2.90;;
53688;SDS011;39583;54.682;30.662;2024-03-25T12:56:44;4.10;;;2.72;;
53688;SDS011;39583;54.682;30.662;2024-03-25T12:59:10;7.30;;;2.75;;
53688;SDS011;39583;54.682;30.662;2024-03-25T13:01:37;5.35;;;2.50;;
53688;SDS011;39583;54.682;30.662;2024-03-25T13:04:03;7.43;;;3.20;;
53688;SDS011;39583;54.682;30.662;2024-03-25T13:06:30;8.98;;;2.45;;
53688;SDS011;39583;54.682;30.662;2024-03-25T13:08:57;5.75;;;3.15;;
53688;SDS011;39583;54.682;30.662;2024-03-25T13:11:23;6.43;;;3.22;;
53688;SDS011;39583;54.682;30.662;2024-03-25T13:13:49;6.63;;;3.15;;
53688;SDS011;39583;54.682;30.662;2024-03-25T13:16:15;4.30;;;2.42;;
53688;SDS011;39583;54.682;30.662;2024-03-25T13:18:42;7.03;;;2.95;;
53688;SDS011;39583;54.682;30.662;2024-03-25T13:21:08;6.50;;;3.05;;
53688;SDS011;39583;54.682;30.662;2024-03-25T13:23:34;6.63;;;2.92;;
53688;SDS011;39583;54.682;30.662;2024-03-25T13:26:01;6.45;;;3.08;;
53688;SDS011;39583;54.682;30.662;2024-03-25T13:28:27;6.47;;;3.05;;
53688;SDS011;39583;54.682;30.662;2024-03-25T13:30:54;6.03;;;3.00;;
53688;SDS011;39583;54.682;30.662;2024-03-25T13:33:20;4.65;;;2.53;;
53688;SDS011;39583;54.682;30.662;2024-03-25T13:35:46;7.90;;;3.08;;
53688;SDS011;39583;54.682;30.662;2024-03-25T13:38:13;8.13;;;3.10;;
53688;SDS011;39583;54.682;30.662;2024-03-25T13:40:40;8.68;;;3.40;;
53688;SDS011;39583;54.682;30.662;2024-03-25T13:43:07;9.80;;;3.72;;
53688;SDS011;39583;54.682;30.662;2024-03-25T13:45:35;6.95;;;3.72;;
53688;SDS011;39583;54.682;30.662;2024-03-25T13:48:01;6.93;;;3.30;;
53688;SDS011;39583;54.682;30.662;2024-03-25T13:50:28;7.45;;;3.05;;
53688;SDS011;39583;54.682;30.662;2024-03-25T13:52:54;6.85;;;3.60;;
53688;SDS011;39583;54.682;30.662;2024-03-25T13:55:20;7.68;;;2.90;;
53688;SDS011;39583;54.682;30.662;2024-03-25T13:57:47;8.63;;;3.22;;
53688;SDS011;39583;54.682;30.662;2024-03-25T14:00:14;10.32;;;3.67;;
53688;SDS011;39583;54.682;30.662;2024-03-25T14:02:41;4.22;;;2.72;;
53688;SDS011;39583;54.682;30.662;2024-03-25T14:05:07;6.90;;;3.10;;
53688;SDS011;39583;54.682;30.662;2024-03-25T14:07:34;9.82;;;2.55;;
53688;SDS011;39583;54.682;30.662;2024-03-25T14:10:01;6.07;;;3.05;;
53688;SDS011;39583;54.682;30.662;2024-03-25T14:12:29;8.65;;;3.10;;
53688;SDS011;39583;54.682;30.662;2024-03-25T14:14:55;5.97;;;2.97;;
53688;SDS011;39583;54.682;30.662;2024-03-25T14:17:22;7.65;;;3.25;;
53688;SDS011;39583;54.682;30.662;2024-03-25T14:19:48;9.20;;;3.50;;
53688;SDS011;39583;54.682;30.662;2024-03-25T14:22:20;10.55;;;3.42;;
53688;SDS011;39583;54.682;30.662;2024-03-25T14:24:47;8.60;;;3.20;;
53688;SDS011;39583;54.682;30.662;2024-03-25T14:27:15;6.75;;;3.63;;
53688;SDS011;39583;54.682;30.662;2024-03-25T14:29:47;4.88;;;2.47;;
53688;SDS011;39583;54.682;30.662;2024-03-25T14:32:21;4.63;;;2.90;;
53688;SDS011;39583;54.682;30.662;2024-03-25T14:34:48;5.55;;;2.60;;
53688;SDS011;39583;54.682;30.662;2024-03-25T14:37:16;5.15;;;2.60;;
53688;SDS011;39583;54.682;30.662;2024-03-25T14:39:42;5.45;;;2.58;;
53688;SDS011;39583;54.682;30.662;2024-03-25T14:42:09;6.32;;;2.60;;
53688;SDS011;39583;54.682;30.662;2024-03-25T14:44:39;10.65;;;2.70;;
53688;SDS011;39583;54.682;30.662;2024-03-25T14:47:06;6.13;;;2.60;;
53688;SDS011;39583;54.682;30.662;2024-03-25T14:49:32;4.88;;;2.70;;
53688;SDS011;39583;54.682;30.662;2024-03-25T14:52:01;4.93;;;2.40;;
53688;SDS011;39583;54.682;30.662;2024-03-25T14:54:37;5.18;;;2.70;;
53688;SDS011;39583;54.682;30.662;2024-03-25T14:57:04;6.25;;;3.03;;
53688;SDS011;39583;54.682;30.662;2024-03-25T14:59:33;7.15;;;2.72;;
53688;SDS011;39583;54.682;30.662;2024-03-25T15:02:00;5.50;;;2.70;;
53688;SDS011;39583;54.682;30.662;2024-03-25T15:04:27;5.75;;;2.90;;
53688;SDS011;39583;54.682;30.662;2024-03-25T15:06:54;6.65;;;2.85;;
53688;SDS011;39583;54.682;30.662;2024-03-25T15:09:22;7.63;;;2.80;;
53688;SDS011;39583;54.682;30.662;2024-03-25T15:11:49;8.95;;;4.97;;
53688;SDS011;39583;54.682;30.662;2024-03-25T15:14:15;7.53;;;3.25;;
53688;SDS011;39583;54.682;30.662;2024-03-25T15:16:43;4.90;;;2.60;;
53688;SDS011;39583;54.682;30.662;2024-03-25T15:19:11;5.13;;;2.92;;
53688;SDS011;39583;54.682;30.662;2024-03-25T15:21:38;5.85;;;2.85;;
53688;SDS011;39583;54.682;30.662;2024-03-25T15:24:06;4.13;;;2.55;;
53688;SDS011;39583;54.682;30.662;2024-03-25T15:26:32;3.65;;;2.50;;
53688;SDS011;39583;54.682;30.662;2024-03-25T15:29:00;7.97;;;3.45;;
53688;SDS011;39583;54.682;30.662;2024-03-25T15:31:26;4.43;;;2.85;;
53688;SDS011;39583;54.682;30.662;2024-03-25T15:33:52;6.50;;;3.15;;
53688;SDS011;39583;54.682;30.662;2024-03-25T15:36:20;5.93;;;2.90;;
53688;SDS011;39583;54.682;30.662;2024-03-25T15:38:47;5.68;;;2.97;;
53688;SDS011;39583;54.682;30.662;2024-03-25T15:41:13;5.75;;;2.92;;
53688;SDS011;39583;54.682;30.662;2024-03-25T15:43:41;6.90;;;3.15;;
53688;SDS011;39583;54.682;30.662;2024-03-25T15:46:08;5.75;;;2.97;;
53688;SDS011;39583;54.682;30.662;2024-03-25T15:48:34;4.70;;;3.03;;
53688;SDS011;39583;54.682;30.662;2024-03-25T15:51:01;9.77;;;3.22;;
53688;SDS011;39583;54.682;30.662;2024-03-25T15:53:27;6.43;;;2.97;;
53688;SDS011;39583;54.682;30.662;2024-03-25T15:55:54;10.02;;;3.95;;
53688;SDS011;39583;54.682;30.662;2024-03-25T15:58:20;7.20;;;3.28;;
53688;SDS011;39583;54.682;30.662;2024-03-25T16:00:46;6.88;;;3.45;;
53688;SDS011;39583;54.682;30.662;2024-03-25T16:03:14;7.32;;;3.05;;
53688;SDS011;39583;54.682;30.662;2024-03-25T16:05:41;7.35;;;3.05;;
53688;SDS011;39583;54.682;30.662;2024-03-25T16:08:08;9.85;;;3.55;;
53688;SDS011;39583;54.682;30.662;2024-03-25T16:10:35;6.97;;;2.92;;
53688;SDS011;39583;54.682;30.662;2024-03-25T16:13:02;6.75;;;3.22;;
53688;SDS011;39583;54.682;30.662;2024-03-25T16:15:31;7.82;;;3.08;;
53688;SDS011;39583;54.682;30.662;2024-03-25T16:18:00;6.72;;;3.25;;
53688;SDS011;39583;54.682;30.662;2024-03-25T16:20:30;6.32;;;3.08;;
53688;SDS011;39583;54.682;30.662;2024-03-25T16:22:58;6.65;;;3.28;;
53688;SDS011;39583;54.682;30.662;2024-03-25T16:25:27;9.30;;;3.20;;
53688;SDS011;39583;54.682;30.662;2024-03-25T16:28:01;7.25;;;3.25;;
53688;SDS011;39583;54.682;30.662;2024-03-25T16:30:31;6.75;;;2.88;;
53688;SDS011;39583;54.682;30.662;2024-03-25T16:32:58;5.88;;;3.17;;
53688;SDS011;39583;54.682;30.662;2024-03-25T16:35:25;5.07;;;3.20;;
53688;SDS011;39583;54.682;30.662;2024-03-25T16:37:52;7.05;;;2.80;;
53688;SDS011;39583;54.682;30.662;2024-03-25T16:40:20;7.00;;;3.15;;
53688;SDS011;39583;54.682;30.662;2024-03-25T16:42:52;5.97;;;2.83;;
53688;SDS011;39583;54.682;30.662;2024-03-25T16:45:26;6.93;;;3.08;;
53688;SDS011;39583;54.682;30.662;2024-03-25T16:48:04;5.90;;;2.67;;
53688;SDS011;39583;54.682;30.662;2024-03-25T16:50:45;5.47;;;2.35;;
53688;SDS011;39583;54.682;30.662;2024-03-25T16:53:15;5.60;;;2.58;;
53688;SDS011;39583;54.682;30.662;2024-03-25T16:55:49;3.95;;;2.45;;
53688;SDS011;39583;54.682;30.662;2024-03-25T16:58:16;6.57;;;3.13;;
53688;SDS011;39583;54.682;30.662;2024-03-25T17:00:48;6.47;;;2.50;;
53688;SDS011;39583;54.682;30.662;2024-03-25T17:03:17;6.25;;;2.80;;
53688;SDS011;39583;54.682;30.662;2024-03-25T17:05:49;6.38;;;2.90;;
53688;SDS011;39583;54.682;30.662;2024-03-25T17:08:23;5.80;;;2.58;;
53688;SDS011;39583;54.682;30.662;2024-03-25T17:10:55;5.15;;;2.50;;
53688;SDS011;39583;54.682;30.662;2024-03-25T17:13:26;6.00;;;2.72;;
53688;SDS011;39583;54.682;30.662;2024-03-25T17:15:55;5.07;;;2.65;;
53688;SDS011;39583;54.682;30.662;2024-03-25T17:18:25;6.10;;;2.85;;
53688;SDS011;39583;54.682;30.662;2024-03-25T17:20:59;4.72;;;2.15;;
53688;SDS011;39583;54.682;30.662;2024-03-25T17:26:20;3.75;;;2.15;;
53688;SDS011;39583;54.682;30.662;2024-03-25T17:28:47;8.80;;;2.88;;
53688;SDS011;39583;54.682;30.662;2024-03-25T17:31:14;6.00;;;2.50;;
53688;SDS011;39583;54.682;30.662;2024-03-25T17:33:46;5.90;;;2.55;;
53688;SDS011;39583;54.682;30.662;2024-03-25T17:36:17;4.75;;;2.53;;
53688;SDS011;39583;54.682;30.662;2024-03-25T17:38:47;4.97;;;2.33;;
53688;SDS011;39583;54.682;30.662;2024-03-25T17:41:17;4.70;;;2.55;;
53688;SDS011;39583;54.682;30.662;2024-03-25T17:43:53;5.80;;;2.20;;
53688;SDS011;39583;54.682;30.662;2024-03-25T17:46:28;4.85;;;2.33;;
53688;SDS011;39583;54.682;30.662;2024-03-25T17:48:56;6.45;;;2.60;;
53688;SDS011;39583;54.682;30.662;2024-03-25T17:51:27;5.38;;;2.63;;
53688;SDS011;39583;54.682;30.662;2024-03-25T17:53:54;6.88;;;2.70;;
53688;SDS011;39583;54.682;30.662;2024-03-25T17:56:23;8.45;;;2.70;;
53688;SDS011;39583;54.682;30.662;2024-03-25T17:58:57;7.10;;;3.17;;
53688;SDS011;39583;54.682;30.662;2024-03-25T18:01:32;9.75;;;3.08;;
53688;SDS011;39583;54.682;30.662;2024-03-25T18:04:04;9.75;;;2.55;;
53688;SDS011;39583;54.682;30.662;2024-03-25T18:06:43;9.50;;;3.15;;
53688;SDS011;39583;54.682;30.662;2024-03-25T18:09:27;6.63;;;2.97;;
53688;SDS011;39583;54.682;30.662;2024-03-25T18:12:00;7.00;;;2.80;;
53688;SDS011;39583;54.682;30.662;2024-03-25T18:14:42;7.50;;;3.72;;
53688;SDS011;39583;54.682;30.662;2024-03-25T18:17:16;11.15;;;4.40;;
53688;SDS011;39583;54.682;30.662;2024-03-25T18:19:42;10.13;;;3.70;;
53688;SDS011;39583;54.682;30.662;2024-03-25T18:22:11;8.75;;;3.85;;
53688;SDS011;39583;54.682;30.662;2024-03-25T18:24:52;11.65;;;4.38;;
53688;SDS011;39583;54.682;30.662;2024-03-25T18:27:30;11.23;;;4.72;;
53688;SDS011;39583;54.682;30.662;2024-03-25T18:30:00;10.88;;;4.78;;
53688;SDS011;39583;54.682;30.662;2024-03-25T18:32:33;14.07;;;4.13;;
53688;SDS011;39583;54.682;30.662;2024-03-25T18:35:01;14.40;;;5.40;;
53688;SDS011;39583;54.682;30.662;2024-03-25T18:37:31;9.68;;;3.83;;
53688;SDS011;39583;54.682;30.662;2024-03-25T18:39:59;7.97;;;4.15;;
53688;SDS011;39583;54.682;30.662;2024-03-25T18:42:29;8.38;;;4.45;;
53688;SDS011;39583;54.682;30.662;2024-03-25T18:45:06;9.27;;;3.90;;
53688;SDS011;39583;54.682;30.662;2024-03-25T18:47:41;10.57;;;4.60;;
53688;SDS011;39583;54.682;30.662;2024-03-25T18:50:12;9.50;;;5.10;;
53688;SDS011;39583;54.682;30.662;2024-03-25T18:52:49;13.05;;;3.83;;
53688;SDS011;39583;54.682;30.662;2024-03-25T18:55:25;9.95;;;3.95;;
53688;SDS011;39583;54.682;30.662;2024-03-25T18:57:56;7.65;;;3.58;;
53688;SDS011;39583;54.682;30.662;2024-03-25T19:00:26;8.95;;;3.55;;
53688;SDS011;39583;54.682;30.662;2024-03-25T19:02:58;5.53;;;2.60;;
53688;SDS011;39583;54.682;30.662;2024-03-25T19:05:26;6.68;;;2.75;;
53688;SDS011;39583;54.682;30.662;2024-03-25T19:07:53;9.23;;;4.22;;
53688;SDS011;39583;54.682;30.662;2024-03-25T19:10:26;7.20;;;3.28;;
53688;SDS011;39583;54.682;30.662;2024-03-25T19:12:56;13.73;;;5.03;;
53688;SDS011;39583;54.682;30.662;2024-03-25T19:15:24;11.05;;;4.35;;
53688;SDS011;39583;54.682;30.662;2024-03-25T19:17:51;10.55;;;3.92;;
53688;SDS011;39583;54.682;30.662;2024-03-25T19:20:17;11.18;;;4.88;;
53688;SDS011;39583;54.682;30.662;2024-03-25T19:22:44;12.55;;;4.47;;
53688;SDS011;39583;54.682;30.662;2024-03-25T19:25:11;10.85;;;3.90;;
53688;SDS011;39583;54.682;30.662;2024-03-25T19:27:41;11.93;;;4.22;;
53688;SDS011;39583;54.682;30.662;2024-03-25T19:30:07;13.30;;;4.15;;
53688;SDS011;39583;54.682;30.662;2024-03-25T19:32:35;12.07;;;4.47;;
53688;SDS011;39583;54.682;30.662;2024-03-25T19:35:01;11.27;;;4.25;;
53688;SDS011;39583;54.682;30.662;2024-03-25T19:37:28;9.77;;;4.18;;
53688;SDS011;39583;54.682;30.662;2024-03-25T19:39:54;11.40;;;4.60;;
53688;SDS011;39583;54.682;30.662;2024-03-25T19:42:20;11.25;;;4.07;;
53688;SDS011;39583;54.682;30.662;2024-03-25T19:44:47;10.68;;;4.13;;
53688;SDS011;39583;54.682;30.662;2024-03-25T19:47:13;7.63;;;3.88;;
53688;SDS011;39583;54.682;30.662;2024-03-25T19:49:40;12.20;;;3.30;;
53688;SDS011;39583;54.682;30.662;2024-03-25T19:52:06;8.65;;;3.80;;
53688;SDS011;39583;54.682;30.662;2024-03-25T19:54:33;11.23;;;4.35;;
53688;SDS011;39583;54.682;30.662;2024-03-25T19:57:01;10.20;;;4.18;;
53688;SDS011;39583;54.682;30.662;2024-03-25T19:59:28;8.70;;;4.00;;
53688;SDS011;39583;54.682;30.662;2024-03-25T20:01:56;8.20;;;3.55;;
53688;SDS011;39583;54.682;30.662;2024-03-25T20:04:22;9.70;;;3.88;;
53688;SDS011;39583;54.682;30.662;2024-03-25T20:06:49;14.18;;;4.03;;
53688;SDS011;39583;54.682;30.662;2024-03-25T20:09:15;8.95;;;4.20;;
53688;SDS011;39583;54.682;30.662;2024-03-25T20:11:42;8.68;;;3.90;;
53688;SDS011;39583;54.682;30.662;2024-03-25T20:14:09;10.48;;;3.10;;
53688;SDS011;39583;54.682;30.662;2024-03-25T20:16:35;9.70;;;3.35;;
53688;SDS011;39583;54.682;30.662;2024-03-25T20:19:02;5.93;;;2.78;;
53688;SDS011;39583;54.682;30.662;2024-03-25T20:21:29;7.40;;;3.28;;
53688;SDS011;39583;54.682;30.662;2024-03-25T20:23:55;6.97;;;3.33;;
53688;SDS011;39583;54.682;30.662;2024-03-25T20:26:22;5.82;;;2.88;;